sensor_id;sensor_type;location;lat;lon;timestamp;pressure;altitude;pressure_sealevel;temperature;humidity
53526;BME280;40551;50.478;19.378;2023-06-04T00:02:06;98380.84;;;8.31;59.89
53526;BME280;40551;50.478;19.378;2023-06-04T00:04:37;98381.73;;;8.31;59.75
53526;BME280;40551;50.478;19.378;2023-06-04T00:07:09;98382.69;;;8.29;59.78
53526;BME280;40551;50.478;19.378;2023-06-04T00:09:39;98380.23;;;8.30;59.77
53526;BME280;40551;50.478;19.378;2023-06-04T00:12:11;98378.56;;;8.27;60.08
53526;BME280;40551;50.478;19.378;2023-06-04T00:14:41;98376.92;;;8.28;60.05
53526;BME280;40551;50.478;19.378;2023-06-04T00:17:13;98374.58;;;8.24;60.23
53526;BME280;40551;50.478;19.378;2023-06-04T00:19:45;98373.52;;;8.25;60.31
53526;BME280;40551;50.478;19.378;2023-06-04T00:22:15;98371.80;;;8.25;60.25
53526;BME280;40551;50.478;19.378;2023-06-04T00:24:46;98370.21;;;8.20;60.43
53526;BME280;40551;50.478;19.378;2023-06-04T00:27:16;98365.23;;;8.19;60.47
53526;BME280;40551;50.478;19.378;2023-06-04T00:29:48;98362.17;;;8.14;60.65
53526;BME280;40551;50.478;19.378;2023-06-04T00:32:20;98362.31;;;8.12;60.70
53526;BME280;40551;50.478;19.378;2023-06-04T00:34:51;98358.02;;;8.09;60.81
53526;BME280;40551;50.478;19.378;2023-06-04T00:37:24;98357.36;;;8.04;60.99
53526;BME280;40551;50.478;19.378;2023-06-04T00:39:55;98357.25;;;8.05;61.05
53526;BME280;40551;50.478;19.378;2023-06-04T00:42:26;98354.17;;;8.07;60.93
53526;BME280;40551;50.478;19.378;2023-06-04T00:44:57;98356.73;;;8.05;61.13
53526;BME280;40551;50.478;19.378;2023-06-04T00:47:29;98354.11;;;8.08;60.91
53526;BME280;40551;50.478;19.378;2023-06-04T00:49:59;98352.52;;;8.09;61.04
53526;BME280;40551;50.478;19.378;2023-06-04T00:52:31;98352.59;;;8.05;61.26
53526;BME280;40551;50.478;19.378;2023-06-04T00:55:01;98354.13;;;8.05;61.17
53526;BME280;40551;50.478;19.378;2023-06-04T00:57:33;98351.81;;;8.01;61.49
53526;BME280;40551;50.478;19.378;2023-06-04T01:00:04;98349.54;;;8.02;61.38
53526;BME280;40551;50.478;19.378;2023-06-04T01:02:38;98352.33;;;7.99;61.49
53526;BME280;40551;50.478;19.378;2023-06-04T01:05:14;98351.59;;;7.99;61.38
53526;BME280;40551;50.478;19.378;2023-06-04T01:07:49;98349.62;;;8.00;61.54
53526;BME280;40551;50.478;19.378;2023-06-04T01:10:22;98347.05;;;8.00;61.64
53526;BME280;40551;50.478;19.378;2023-06-04T01:12:53;98344.38;;;7.99;61.48
53526;BME280;40551;50.478;19.378;2023-06-04T01:15:23;98340.92;;;7.98;61.73
53526;BME280;40551;50.478;19.378;2023-06-04T01:18:00;98343.90;;;7.96;61.76
53526;BME280;40551;50.478;19.378;2023-06-04T01:20:38;98343.05;;;7.95;61.85
53526;BME280;40551;50.478;19.378;2023-06-04T01:23:23;98344.56;;;7.96;61.83
53526;BME280;40551;50.478;19.378;2023-06-04T01:26:05;98344.70;;;7.97;62.06
53526;BME280;40551;50.478;19.378;2023-06-04T01:28:37;98345.89;;;7.97;61.98
53526;BME280;40551;50.478;19.378;2023-06-04T01:31:09;98343.00;;;7.96;61.95
53526;BME280;40551;50.478;19.378;2023-06-04T01:33:47;98344.26;;;7.95;61.87
53526;BME280;40551;50.478;19.378;2023-06-04T01:36:19;98343.47;;;7.95;61.97
53526;BME280;40551;50.478;19.378;2023-06-04T01:38:49;98342.73;;;7.93;62.06
53526;BME280;40551;50.478;19.378;2023-06-04T01:41:22;98339.80;;;7.88;62.14
53526;BME280;40551;50.478;19.378;2023-06-04T01:43:52;98341.02;;;7.88;62.14
53526;BME280;40551;50.478;19.378;2023-06-04T01:46:23;98341.95;;;7.84;62.42
53526;BME280;40551;50.478;19.378;2023-06-04T01:48:53;98344.50;;;7.85;62.16
53526;BME280;40551;50.478;19.378;2023-06-04T01:51:25;98344.02;;;7.81;62.30
53526;BME280;40551;50.478;19.378;2023-06-04T01:53:55;98344.81;;;7.83;62.43
53526;BME280;40551;50.478;19.378;2023-06-04T01:56:27;98340.97;;;7.78;62.45
53526;BME280;40551;50.478;19.378;2023-06-04T01:58:59;98341.77;;;7.79;62.43
53526;BME280;40551;50.478;19.378;2023-06-04T02:01:31;98339.02;;;7.76;62.59
53526;BME280;40551;50.478;19.378;2023-06-04T02:04:01;98346.95;;;7.74;62.69
53526;BME280;40551;50.478;19.378;2023-06-04T02:06:33;98346.19;;;7.68;63.05
53526;BME280;40551;50.478;19.378;2023-06-04T02:09:07;98346.23;;;7.65;63.17
53526;BME280;40551;50.478;19.378;2023-06-04T02:11:37;98346.89;;;7.60;63.11
53526;BME280;40551;50.478;19.378;2023-06-04T02:14:08;98345.31;;;7.50;63.66
53526;BME280;40551;50.478;19.378;2023-06-04T02:16:39;98345.46;;;7.43;63.62
53526;BME280;40551;50.478;19.378;2023-06-04T02:19:10;98347.05;;;7.34;64.15
53526;BME280;40551;50.478;19.378;2023-06-04T02:21:43;98350.02;;;7.31;64.00
53526;BME280;40551;50.478;19.378;2023-06-04T02:24:13;98351.23;;;7.28;64.30
53526;BME280;40551;50.478;19.378;2023-06-04T02:26:44;98351.82;;;7.22;64.57
53526;BME280;40551;50.478;19.378;2023-06-04T02:29:16;98347.45;;;7.21;64.68
53526;BME280;40551;50.478;19.378;2023-06-04T02:31:48;98348.34;;;7.18;64.88
53526;BME280;40551;50.478;19.378;2023-06-04T02:34:18;98349.09;;;7.14;64.78
53526;BME280;40551;50.478;19.378;2023-06-04T02:36:50;98349.29;;;7.05;64.89
53526;BME280;40551;50.478;19.378;2023-06-04T02:39:22;98348.21;;;7.04;65.08
53526;BME280;40551;50.478;19.378;2023-06-04T02:41:54;98349.80;;;7.03;64.92
53526;BME280;40551;50.478;19.378;2023-06-04T02:44:26;98346.46;;;7.04;65.06
53526;BME280;40551;50.478;19.378;2023-06-04T02:47:00;98345.81;;;7.06;65.09
53526;BME280;40551;50.478;19.378;2023-06-04T02:49:32;98344.98;;;7.08;65.11
53526;BME280;40551;50.478;19.378;2023-06-04T02:52:02;98346.40;;;7.10;65.10
53526;BME280;40551;50.478;19.378;2023-06-04T02:54:34;98345.55;;;7.07;65.36
53526;BME280;40551;50.478;19.378;2023-06-04T02:57:07;98346.14;;;7.12;65.23
53526;BME280;40551;50.478;19.378;2023-06-04T02:59:39;98344.23;;;7.17;65.20
53526;BME280;40551;50.478;19.378;2023-06-04T03:02:09;98346.17;;;7.21;65.41
53526;BME280;40551;50.478;19.378;2023-06-04T03:04:43;98346.74;;;7.23;65.47
53526;BME280;40551;50.478;19.378;2023-06-04T03:07:15;98345.60;;;7.38;65.84
53526;BME280;40551;50.478;19.378;2023-06-04T03:09:51;98343.63;;;7.85;66.80
53526;BME280;40551;50.478;19.378;2023-06-04T03:12:22;98342.95;;;8.44;66.99
53526;BME280;40551;50.478;19.378;2023-06-04T03:14:54;98346.30;;;9.05;66.34
53526;BME280;40551;50.478;19.378;2023-06-04T03:17:26;98346.59;;;9.59;65.11
53526;BME280;40551;50.478;19.378;2023-06-04T03:20:12;98344.29;;;10.07;64.15
53526;BME280;40551;50.478;19.378;2023-06-04T03:23:11;98341.75;;;10.79;63.49
53526;BME280;40551;50.478;19.378;2023-06-04T03:26:54;98341.74;;;11.56;61.95
53526;BME280;40551;50.478;19.378;2023-06-04T03:30:26;98338.39;;;12.34;61.01
53526;BME280;40551;50.478;19.378;2023-06-04T03:33:24;98332.05;;;12.92;58.42
53526;BME280;40551;50.478;19.378;2023-06-04T03:36:11;98331.86;;;13.31;56.99
53526;BME280;40551;50.478;19.378;2023-06-04T03:39:35;98333.73;;;13.77;55.79
53526;BME280;40551;50.478;19.378;2023-06-04T03:42:33;98332.86;;;14.28;54.83
53526;BME280;40551;50.478;19.378;2023-06-04T03:45:06;98330.07;;;14.77;54.59
53526;BME280;40551;50.478;19.378;2023-06-04T03:47:39;98331.33;;;15.30;53.35
53526;BME280;40551;50.478;19.378;2023-06-04T03:50:12;98332.94;;;15.79;52.72
53526;BME280;40551;50.478;19.378;2023-06-04T03:52:44;98332.12;;;16.41;52.27
53526;BME280;40551;50.478;19.378;2023-06-04T03:55:16;98333.02;;;17.07;51.15
53526;BME280;40551;50.478;19.378;2023-06-04T03:57:49;98337.13;;;17.68;50.06
53526;BME280;40551;50.478;19.378;2023-06-04T04:00:23;98335.61;;;18.09;47.93
53526;BME280;40551;50.478;19.378;2023-06-04T04:02:55;98334.64;;;18.25;46.61
53526;BME280;40551;50.478;19.378;2023-06-04T04:05:30;98334.66;;;18.46;45.66
53526;BME280;40551;50.478;19.378;2023-06-04T04:08:02;98337.90;;;18.60;44.62
53526;BME280;40551;50.478;19.378;2023-06-04T04:10:35;98338.15;;;18.72;44.06
53526;BME280;40551;50.478;19.378;2023-06-04T04:13:07;98338.41;;;18.82;43.47
53526;BME280;40551;50.478;19.378;2023-06-04T04:15:40;98338.16;;;19.09;43.06
53526;BME280;40551;50.478;19.378;2023-06-04T04:18:12;98337.17;;;19.24;42.42
53526;BME280;40551;50.478;19.378;2023-06-04T04:20:44;98339.63;;;19.34;41.46
53526;BME280;40551;50.478;19.378;2023-06-04T04:23:16;98339.75;;;19.29;40.74
53526;BME280;40551;50.478;19.378;2023-06-04T04:25:48;98341.36;;;19.48;41.29
53526;BME280;40551;50.478;19.378;2023-06-04T04:28:20;98336.80;;;19.85;41.09
53526;BME280;40551;50.478;19.378;2023-06-04T04:30:52;98343.46;;;19.95;39.44
53526;BME280;40551;50.478;19.378;2023-06-04T04:33:24;98339.61;;;19.94;39.49
53526;BME280;40551;50.478;19.378;2023-06-04T04:35:56;98336.77;;;20.28;39.37
53526;BME280;40551;50.478;19.378;2023-06-04T04:38:29;98334.23;;;20.36;38.42
53526;BME280;40551;50.478;19.378;2023-06-04T04:41:06;98336.15;;;20.51;38.05
53526;BME280;40551;50.478;19.378;2023-06-04T04:43:39;98335.89;;;20.74;37.79
53526;BME280;40551;50.478;19.378;2023-06-04T04:46:24;98337.41;;;20.65;36.58
53526;BME280;40551;50.478;19.378;2023-06-04T04:48:57;98334.64;;;20.50;36.61
53526;BME280;40551;50.478;19.378;2023-06-04T04:51:28;98341.11;;;20.57;36.97
53526;BME280;40551;50.478;19.378;2023-06-04T04:54:00;98341.48;;;20.88;37.29
53526;BME280;40551;50.478;19.378;2023-06-04T04:56:34;98339.93;;;21.21;36.68
53526;BME280;40551;50.478;19.378;2023-06-04T04:59:06;98343.33;;;21.40;36.27
53526;BME280;40551;50.478;19.378;2023-06-04T05:01:38;98347.59;;;21.67;36.15
53526;BME280;40551;50.478;19.378;2023-06-04T05:04:10;98349.19;;;21.90;35.56
53526;BME280;40551;50.478;19.378;2023-06-04T05:06:43;98350.23;;;21.96;34.81
53526;BME280;40551;50.478;19.378;2023-06-04T05:09:15;98353.29;;;22.10;35.08
53526;BME280;40551;50.478;19.378;2023-06-04T05:11:48;98353.16;;;22.30;34.66
53526;BME280;40551;50.478;19.378;2023-06-04T05:14:19;98351.55;;;22.36;34.24
53526;BME280;40551;50.478;19.378;2023-06-04T05:16:53;98348.98;;;22.61;34.35
53526;BME280;40551;50.478;19.378;2023-06-04T05:19:27;98348.33;;;22.79;33.91
53526;BME280;40551;50.478;19.378;2023-06-04T05:21:58;98344.30;;;22.99;33.41
53526;BME280;40551;50.478;19.378;2023-06-04T05:24:31;98347.48;;;23.26;33.35
53526;BME280;40551;50.478;19.378;2023-06-04T05:27:05;98347.00;;;23.35;32.38
53526;BME280;40551;50.478;19.378;2023-06-04T05:29:41;98346.20;;;23.29;31.80
53526;BME280;40551;50.478;19.378;2023-06-04T05:32:13;98351.83;;;23.31;31.62
53526;BME280;40551;50.478;19.378;2023-06-04T05:34:46;98349.33;;;23.05;31.24
53526;BME280;40551;50.478;19.378;2023-06-04T05:37:18;98346.81;;;23.22;31.71
53526;BME280;40551;50.478;19.378;2023-06-04T05:39:49;98346.67;;;23.36;31.45
53526;BME280;40551;50.478;19.378;2023-06-04T05:42:38;98347.64;;;23.60;31.73
53526;BME280;40551;50.478;19.378;2023-06-04T05:45:11;98346.58;;;23.72;31.08
53526;BME280;40551;50.478;19.378;2023-06-04T05:47:43;98344.86;;;23.75;30.61
53526;BME280;40551;50.478;19.378;2023-06-04T05:50:15;98345.56;;;23.74;30.07
53526;BME280;40551;50.478;19.378;2023-06-04T05:52:47;98347.38;;;23.83;29.82
53526;BME280;40551;50.478;19.378;2023-06-04T05:55:19;98345.95;;;23.79;29.87
53526;BME280;40551;50.478;19.378;2023-06-04T05:57:51;98350.34;;;24.06;30.26
53526;BME280;40551;50.478;19.378;2023-06-04T06:00:23;98351.02;;;23.94;28.60
53526;BME280;40551;50.478;19.378;2023-06-04T06:02:56;98356.02;;;23.47;28.22
53526;BME280;40551;50.478;19.378;2023-06-04T06:05:34;98358.09;;;23.00;28.37
53526;BME280;40551;50.478;19.378;2023-06-04T06:08:06;98358.69;;;22.83;29.08
53526;BME280;40551;50.478;19.378;2023-06-04T06:10:37;98361.40;;;22.86;29.30
53526;BME280;40551;50.478;19.378;2023-06-04T06:13:09;98367.54;;;22.91;28.88
53526;BME280;40551;50.478;19.378;2023-06-04T06:15:41;98367.16;;;22.71;29.01
53526;BME280;40551;50.478;19.378;2023-06-04T06:18:13;98368.61;;;22.64;28.79
53526;BME280;40551;50.478;19.378;2023-06-04T06:20:45;98366.85;;;22.39;28.62
53526;BME280;40551;50.478;19.378;2023-06-04T06:23:16;98369.00;;;22.37;29.42
53526;BME280;40551;50.478;19.378;2023-06-04T06:25:49;98370.83;;;22.35;28.44
53526;BME280;40551;50.478;19.378;2023-06-04T06:28:28;98368.28;;;22.22;28.89
53526;BME280;40551;50.478;19.378;2023-06-04T06:31:05;98371.23;;;22.30;28.74
53526;BME280;40551;50.478;19.378;2023-06-04T06:33:38;98362.79;;;22.54;29.99
53526;BME280;40551;50.478;19.378;2023-06-04T06:36:12;98360.98;;;23.29;30.05
53526;BME280;40551;50.478;19.378;2023-06-04T06:38:43;98359.48;;;23.80;29.13
53526;BME280;40551;50.478;19.378;2023-06-04T06:41:15;98362.81;;;23.85;27.46
53526;BME280;40551;50.478;19.378;2023-06-04T06:43:47;98364.48;;;23.58;27.27
53526;BME280;40551;50.478;19.378;2023-06-04T06:46:19;98364.08;;;23.41;27.12
53526;BME280;40551;50.478;19.378;2023-06-04T06:48:54;98369.62;;;23.11;26.67
53526;BME280;40551;50.478;19.378;2023-06-04T06:51:27;98370.73;;;22.88;27.75
53526;BME280;40551;50.478;19.378;2023-06-04T06:53:59;98370.01;;;22.99;27.72
53526;BME280;40551;50.478;19.378;2023-06-04T06:56:32;98376.43;;;23.00;27.67
53526;BME280;40551;50.478;19.378;2023-06-04T06:59:04;98380.89;;;23.04;28.21
53526;BME280;40551;50.478;19.378;2023-06-04T07:01:36;98383.09;;;23.05;27.65
53526;BME280;40551;50.478;19.378;2023-06-04T07:04:08;98384.47;;;22.98;28.26
53526;BME280;40551;50.478;19.378;2023-06-04T07:06:40;98386.15;;;23.01;28.33
53526;BME280;40551;50.478;19.378;2023-06-04T07:09:12;98391.97;;;22.84;27.77
53526;BME280;40551;50.478;19.378;2023-06-04T07:11:44;98393.50;;;22.50;28.13
53526;BME280;40551;50.478;19.378;2023-06-04T07:14:16;98390.17;;;22.20;28.07
53526;BME280;40551;50.478;19.378;2023-06-04T07:16:48;98392.92;;;21.77;28.35
53526;BME280;40551;50.478;19.378;2023-06-04T07:19:23;98395.47;;;21.25;28.93
53526;BME280;40551;50.478;19.378;2023-06-04T07:21:57;98393.67;;;20.81;29.56
53526;BME280;40551;50.478;19.378;2023-06-04T07:24:29;98394.92;;;20.38;30.04
53526;BME280;40551;50.478;19.378;2023-06-04T07:27:01;98395.41;;;20.02;30.37
53526;BME280;40551;50.478;19.378;2023-06-04T07:29:33;98391.55;;;19.61;30.34
53526;BME280;40551;50.478;19.378;2023-06-04T07:32:05;98390.89;;;19.43;31.76
53526;BME280;40551;50.478;19.378;2023-06-04T07:34:39;98390.27;;;19.36;32.03
53526;BME280;40551;50.478;19.378;2023-06-04T07:37:11;98393.95;;;19.18;32.12
53526;BME280;40551;50.478;19.378;2023-06-04T07:39:44;98394.52;;;18.99;32.20
53526;BME280;40551;50.478;19.378;2023-06-04T07:42:16;98390.88;;;18.82;32.34
53526;BME280;40551;50.478;19.378;2023-06-04T07:44:48;98395.77;;;18.74;32.44
53526;BME280;40551;50.478;19.378;2023-06-04T07:47:19;98400.30;;;18.60;32.67
53526;BME280;40551;50.478;19.378;2023-06-04T07:49:51;98399.49;;;18.49;32.70
53526;BME280;40551;50.478;19.378;2023-06-04T07:52:33;98403.75;;;18.40;32.22
53526;BME280;40551;50.478;19.378;2023-06-04T07:55:06;98399.83;;;18.33;32.43
53526;BME280;40551;50.478;19.378;2023-06-04T07:57:39;98394.91;;;18.30;32.80
53526;BME280;40551;50.478;19.378;2023-06-04T08:00:12;98394.27;;;18.31;33.28
53526;BME280;40551;50.478;19.378;2023-06-04T08:02:45;98394.39;;;18.41;33.26
53526;BME280;40551;50.478;19.378;2023-06-04T08:05:17;98398.67;;;18.35;32.58
53526;BME280;40551;50.478;19.378;2023-06-04T08:07:49;98400.28;;;18.28;32.65
53526;BME280;40551;50.478;19.378;2023-06-04T08:10:22;98400.91;;;18.17;32.61
53526;BME280;40551;50.478;19.378;2023-06-04T08:12:54;98401.65;;;18.15;32.47
53526;BME280;40551;50.478;19.378;2023-06-04T08:15:26;98394.96;;;18.15;32.67
53526;BME280;40551;50.478;19.378;2023-06-04T08:17:57;98400.32;;;18.17;32.93
53526;BME280;40551;50.478;19.378;2023-06-04T08:20:29;98401.76;;;18.36;33.49
53526;BME280;40551;50.478;19.378;2023-06-04T08:23:02;98394.36;;;18.54;32.72
53526;BME280;40551;50.478;19.378;2023-06-04T08:25:33;98397.44;;;18.55;32.41
53526;BME280;40551;50.478;19.378;2023-06-04T08:28:05;98392.61;;;18.61;33.04
53526;BME280;40551;50.478;19.378;2023-06-04T08:30:37;98388.30;;;18.76;33.18
53526;BME280;40551;50.478;19.378;2023-06-04T08:33:10;98391.13;;;18.84;32.58
53526;BME280;40551;50.478;19.378;2023-06-04T08:35:42;98388.54;;;18.87;32.67
53526;BME280;40551;50.478;19.378;2023-06-04T08:38:13;98389.04;;;18.96;32.42
53526;BME280;40551;50.478;19.378;2023-06-04T08:40:45;98390.92;;;19.03;32.97
53526;BME280;40551;50.478;19.378;2023-06-04T08:43:20;98390.98;;;19.24;33.47
53526;BME280;40551;50.478;19.378;2023-06-04T08:45:52;98389.91;;;19.38;32.73
53526;BME280;40551;50.478;19.378;2023-06-04T08:48:32;98391.65;;;19.47;33.16
53526;BME280;40551;50.478;19.378;2023-06-04T08:51:06;98398.45;;;19.53;32.52
53526;BME280;40551;50.478;19.378;2023-06-04T08:53:39;98394.66;;;19.50;32.30
53526;BME280;40551;50.478;19.378;2023-06-04T08:56:12;98399.32;;;19.44;31.76
53526;BME280;40551;50.478;19.378;2023-06-04T08:58:44;98400.55;;;19.35;31.75
53526;BME280;40551;50.478;19.378;2023-06-04T09:01:20;98399.60;;;19.38;32.37
53526;BME280;40551;50.478;19.378;2023-06-04T09:03:52;98400.73;;;19.59;32.64
53526;BME280;40551;50.478;19.378;2023-06-04T09:06:26;98400.77;;;19.70;31.82
53526;BME280;40551;50.478;19.378;2023-06-04T09:08:59;98401.48;;;19.65;31.51
53526;BME280;40551;50.478;19.378;2023-06-04T09:11:35;98403.04;;;19.64;31.25
53526;BME280;40551;50.478;19.378;2023-06-04T09:14:08;98399.89;;;19.58;31.48
53526;BME280;40551;50.478;19.378;2023-06-04T09:16:47;98405.73;;;19.60;31.74
53526;BME280;40551;50.478;19.378;2023-06-04T09:19:20;98405.02;;;19.61;31.41
53526;BME280;40551;50.478;19.378;2023-06-04T09:21:54;98399.48;;;19.63;31.76
53526;BME280;40551;50.478;19.378;2023-06-04T09:24:38;98401.84;;;19.68;31.53
53526;BME280;40551;50.478;19.378;2023-06-04T09:27:15;98404.73;;;19.66;31.80
53526;BME280;40551;50.478;19.378;2023-06-04T09:29:53;98398.77;;;19.81;32.72
53526;BME280;40551;50.478;19.378;2023-06-04T09:32:26;98399.36;;;20.04;32.38
53526;BME280;40551;50.478;19.378;2023-06-04T09:35:11;98392.42;;;20.15;32.01
53526;BME280;40551;50.478;19.378;2023-06-04T09:37:53;98390.55;;;20.34;32.13
53526;BME280;40551;50.478;19.378;2023-06-04T09:40:34;98400.23;;;20.37;31.48
53526;BME280;40551;50.478;19.378;2023-06-04T09:43:04;98397.78;;;20.24;30.91
53526;BME280;40551;50.478;19.378;2023-06-04T09:45:36;98394.85;;;20.14;31.49
53526;BME280;40551;50.478;19.378;2023-06-04T09:48:08;98392.76;;;20.12;31.56
53526;BME280;40551;50.478;19.378;2023-06-04T09:50:48;98387.23;;;20.17;31.29
53526;BME280;40551;50.478;19.378;2023-06-04T09:53:20;98388.14;;;20.14;31.28
53526;BME280;40551;50.478;19.378;2023-06-04T09:55:58;98387.51;;;20.15;31.38
53526;BME280;40551;50.478;19.378;2023-06-04T09:58:31;98383.48;;;20.22;31.51
53526;BME280;40551;50.478;19.378;2023-06-04T10:01:04;98380.33;;;20.43;31.74
53526;BME280;40551;50.478;19.378;2023-06-04T10:03:37;98377.36;;;20.57;31.18
53526;BME280;40551;50.478;19.378;2023-06-04T10:06:11;98379.59;;;20.60;31.04
53526;BME280;40551;50.478;19.378;2023-06-04T10:08:46;98379.14;;;20.57;30.69
53526;BME280;40551;50.478;19.378;2023-06-04T10:11:26;98379.60;;;20.50;30.60
53526;BME280;40551;50.478;19.378;2023-06-04T10:14:06;98375.60;;;20.57;30.78
53526;BME280;40551;50.478;19.378;2023-06-04T10:16:42;98374.08;;;20.67;30.75
53526;BME280;40551;50.478;19.378;2023-06-04T10:19:16;98376.79;;;20.79;31.21
53526;BME280;40551;50.478;19.378;2023-06-04T10:21:48;98375.94;;;20.85;30.47
53526;BME280;40551;50.478;19.378;2023-06-04T10:24:20;98373.02;;;20.68;29.91
53526;BME280;40551;50.478;19.378;2023-06-04T10:26:55;98370.79;;;20.58;30.71
53526;BME280;40551;50.478;19.378;2023-06-04T10:29:31;98372.73;;;20.68;30.85
53526;BME280;40551;50.478;19.378;2023-06-04T10:32:03;98378.71;;;20.70;30.49
53526;BME280;40551;50.478;19.378;2023-06-04T10:34:37;98374.94;;;20.60;30.67
53526;BME280;40551;50.478;19.378;2023-06-04T10:37:19;98373.75;;;20.62;31.15
53526;BME280;40551;50.478;19.378;2023-06-04T10:39:56;98379.26;;;20.59;30.84
53526;BME280;40551;50.478;19.378;2023-06-04T10:42:38;98377.79;;;20.43;30.39
53526;BME280;40551;50.478;19.378;2023-06-04T10:45:11;98372.20;;;20.52;31.39
53526;BME280;40551;50.478;19.378;2023-06-04T10:47:43;98376.41;;;20.61;31.01
53526;BME280;40551;50.478;19.378;2023-06-04T10:50:18;98376.28;;;20.44;30.47
53526;BME280;40551;50.478;19.378;2023-06-04T10:52:55;98372.98;;;20.26;31.01
53526;BME280;40551;50.478;19.378;2023-06-04T10:55:29;98369.86;;;20.37;31.58
53526;BME280;40551;50.478;19.378;2023-06-04T10:58:01;98374.55;;;20.42;31.14
53526;BME280;40551;50.478;19.378;2023-06-04T11:00:37;98377.21;;;20.38;30.81
53526;BME280;40551;50.478;19.378;2023-06-04T11:03:10;98371.01;;;20.28;30.75
53526;BME280;40551;50.478;19.378;2023-06-04T11:05:44;98375.70;;;20.27;30.73
53526;BME280;40551;50.478;19.378;2023-06-04T11:08:26;98365.90;;;20.29;31.22
53526;BME280;40551;50.478;19.378;2023-06-04T11:10:58;98365.03;;;20.43;31.09
53526;BME280;40551;50.478;19.378;2023-06-04T11:13:30;98364.34;;;20.48;30.72
53526;BME280;40551;50.478;19.378;2023-06-04T11:16:01;98365.16;;;20.55;31.03
53526;BME280;40551;50.478;19.378;2023-06-04T11:18:33;98368.89;;;20.63;31.53
53526;BME280;40551;50.478;19.378;2023-06-04T11:21:05;98374.73;;;20.70;31.55
53526;BME280;40551;50.478;19.378;2023-06-04T11:23:37;98374.63;;;20.78;31.25
53526;BME280;40551;50.478;19.378;2023-06-04T11:26:09;98374.05;;;20.83;31.28
53526;BME280;40551;50.478;19.378;2023-06-04T11:28:41;98377.79;;;20.90;30.82
53526;BME280;40551;50.478;19.378;2023-06-04T11:31:15;98378.73;;;20.79;30.85
53526;BME280;40551;50.478;19.378;2023-06-04T11:33:47;98376.89;;;20.78;30.86
53526;BME280;40551;50.478;19.378;2023-06-04T11:36:27;98376.61;;;20.82;30.89
53526;BME280;40551;50.478;19.378;2023-06-04T11:39:00;98373.17;;;20.84;30.69
53526;BME280;40551;50.478;19.378;2023-06-04T11:41:35;98374.38;;;20.86;30.83
53526;BME280;40551;50.478;19.378;2023-06-04T11:44:07;98377.71;;;20.87;30.30
53526;BME280;40551;50.478;19.378;2023-06-04T11:46:42;98369.92;;;20.81;30.53
53526;BME280;40551;50.478;19.378;2023-06-04T11:49:16;98367.14;;;20.92;30.89
53526;BME280;40551;50.478;19.378;2023-06-04T11:51:49;98364.67;;;20.97;30.67
53526;BME280;40551;50.478;19.378;2023-06-04T11:54:21;98361.20;;;21.00;30.64
53526;BME280;40551;50.478;19.378;2023-06-04T11:56:54;98357.64;;;21.06;30.59
53526;BME280;40551;50.478;19.378;2023-06-04T11:59:26;98360.20;;;21.02;30.40
53526;BME280;40551;50.478;19.378;2023-06-04T12:01:57;98357.05;;;21.05;30.57
53526;BME280;40551;50.478;19.378;2023-06-04T12:04:31;98356.85;;;21.05;30.07
53526;BME280;40551;50.478;19.378;2023-06-04T12:07:03;98356.05;;;21.08;30.67
53526;BME280;40551;50.478;19.378;2023-06-04T12:09:36;98353.36;;;21.16;30.61
53526;BME280;40551;50.478;19.378;2023-06-04T12:12:09;98355.98;;;21.17;30.24
53526;BME280;40551;50.478;19.378;2023-06-04T12:14:42;98356.49;;;21.15;29.94
53526;BME280;40551;50.478;19.378;2023-06-04T12:17:15;98349.22;;;21.17;30.45
53526;BME280;40551;50.478;19.378;2023-06-04T12:19:48;98357.41;;;21.23;30.16
53526;BME280;40551;50.478;19.378;2023-06-04T12:22:20;98352.45;;;21.19;30.28
53526;BME280;40551;50.478;19.378;2023-06-04T12:24:52;98354.31;;;21.27;30.49
53526;BME280;40551;50.478;19.378;2023-06-04T12:27:25;98356.07;;;21.33;30.03
53526;BME280;40551;50.478;19.378;2023-06-04T12:29:58;98355.04;;;21.41;30.05
53526;BME280;40551;50.478;19.378;2023-06-04T12:32:30;98358.94;;;21.47;29.80
53526;BME280;40551;50.478;19.378;2023-06-04T12:35:03;98359.73;;;21.55;29.62
53526;BME280;40551;50.478;19.378;2023-06-04T12:37:35;98357.18;;;21.64;29.62
53526;BME280;40551;50.478;19.378;2023-06-04T12:40:09;98362.83;;;21.61;28.98
53526;BME280;40551;50.478;19.378;2023-06-04T12:42:41;98361.33;;;21.50;29.08
53526;BME280;40551;50.478;19.378;2023-06-04T12:45:13;98354.89;;;21.57;29.43
53526;BME280;40551;50.478;19.378;2023-06-04T12:47:45;98352.86;;;21.71;29.45
53526;BME280;40551;50.478;19.378;2023-06-04T12:50:18;98346.56;;;21.79;29.08
53526;BME280;40551;50.478;19.378;2023-06-04T12:52:52;98346.34;;;21.84;29.17
53526;BME280;40551;50.478;19.378;2023-06-04T12:55:23;98352.38;;;21.92;29.13
53526;BME280;40551;50.478;19.378;2023-06-04T12:57:58;98353.08;;;21.93;29.30
53526;BME280;40551;50.478;19.378;2023-06-04T13:00:30;98352.66;;;21.93;29.06
53526;BME280;40551;50.478;19.378;2023-06-04T13:03:02;98356.92;;;21.81;28.96
53526;BME280;40551;50.478;19.378;2023-06-04T13:05:34;98351.65;;;21.78;29.43
53526;BME280;40551;50.478;19.378;2023-06-04T13:08:06;98350.83;;;21.93;29.47
53526;BME280;40551;50.478;19.378;2023-06-04T13:10:38;98350.36;;;22.10;29.35
53526;BME280;40551;50.478;19.378;2023-06-04T13:13:10;98348.71;;;22.09;28.69
53526;BME280;40551;50.478;19.378;2023-06-04T13:15:41;98351.09;;;21.96;28.13
53526;BME280;40551;50.478;19.378;2023-06-04T13:18:13;98350.88;;;21.86;28.70
53526;BME280;40551;50.478;19.378;2023-06-04T13:20:45;98352.09;;;21.83;28.58
53526;BME280;40551;50.478;19.378;2023-06-04T13:23:16;98348.42;;;21.84;28.75
53526;BME280;40551;50.478;19.378;2023-06-04T13:25:48;98349.83;;;21.88;28.46
53526;BME280;40551;50.478;19.378;2023-06-04T13:28:20;98349.91;;;21.86;28.66